createdAt,value
2022-08-07T00:00:51.333Z,65.13
2022-08-07T00:03:17.972Z,65.23
2022-08-07T00:05:45.292Z,65.16
2022-08-07T00:08:12.900Z,65.46
2022-08-07T00:10:47.880Z,65.40
2022-08-07T00:13:26.788Z,65.59
2022-08-07T00:15:55.251Z,66.01
2022-08-07T00:18:26.169Z,65.89
2022-08-07T00:20:56.779Z,65.94
2022-08-07T00:23:24.401Z,65.49
2022-08-07T00:26:00.237Z,65.94
2022-08-07T00:28:33.572Z,65.99
2022-08-07T00:31:12.799Z,65.87
2022-08-07T00:33:43.337Z,66.19
2022-08-07T00:36:14.107Z,66.07
2022-08-07T00:38:40.868Z,66.17
2022-08-07T00:41:09.952Z,65.82
2022-08-07T00:44:01.308Z,65.52
2022-08-07T00:46:27.701Z,65.62
2022-08-07T00:48:54.377Z,65.94
2022-08-07T00:51:21.551Z,65.77
2022-08-07T00:53:50.670Z,66.01
2022-08-07T00:56:23.355Z,66.10
2022-08-07T00:58:57.399Z,66.54
2022-08-07T01:01:24.228Z,66.89
2022-08-07T01:03:55.980Z,66.96
2022-08-07T01:06:27.243Z,66.70
2022-08-07T01:08:56.318Z,66.59
2022-08-07T01:12:09.882Z,66.53
2022-08-07T01:14:12.401Z,66.38
2022-08-07T01:16:43.034Z,66.57
2022-08-07T01:19:14.912Z,66.60
2022-08-07T01:21:48.096Z,66.66
2022-08-07T01:24:21.236Z,66.41
2022-08-07T01:26:51.594Z,66.94
2022-08-07T01:29:18.307Z,66.49
2022-08-07T01:31:48.226Z,66.56
2022-08-07T01:34:17.793Z,66.34
2022-08-07T01:36:52.888Z,66.87
2022-08-07T01:39:39.628Z,66.31
2022-08-07T01:42:38.917Z,66.97
2022-08-07T01:45:05.392Z,67.14
2022-08-07T01:48:18.926Z,67.09
2022-08-07T01:50:30.570Z,66.99
2022-08-07T01:53:00.105Z,66.94
2022-08-07T01:55:30.812Z,67.05
2022-08-07T01:58:27.470Z,67.48
2022-08-07T02:01:10.252Z,67.68
2022-08-07T02:03:50.299Z,67.38
2022-08-07T02:06:31.968Z,67.23
2022-08-07T02:09:03.765Z,66.93
2022-08-07T02:12:03.460Z,66.99
2022-08-07T02:14:40.166Z,66.84
2022-08-07T02:17:09.888Z,67.13
2022-08-07T02:20:04.937Z,67.25
2022-08-07T02:22:30.729Z,67.59
2022-08-07T02:24:58.690Z,67.49
2022-08-07T02:27:34.354Z,67.72
2022-08-07T02:30:03.626Z,67.54
2022-08-07T02:32:39.452Z,68.03
2022-08-07T02:35:11.017Z,67.94
2022-08-07T02:37:44.010Z,68.38
2022-08-07T02:40:30.977Z,67.85
2022-08-07T02:42:59.164Z,67.89
2022-08-07T02:45:58.029Z,67.93
2022-08-07T02:48:15.460Z,67.61
2022-08-07T02:50:44.531Z,67.57
2022-08-07T02:53:15.349Z,67.85
2022-08-07T02:56:02.540Z,67.75
2022-08-07T02:58:33.896Z,67.82
2022-08-07T03:01:03.047Z,68.23
2022-08-07T03:03:49.117Z,68.18
2022-08-07T03:06:25.516Z,68.35
2022-08-07T03:08:53.176Z,67.83
2022-08-07T03:11:21.092Z,67.97
2022-08-07T03:14:01.439Z,67.93
2022-08-07T03:16:30.388Z,67.50
2022-08-07T03:18:59.155Z,68.01
2022-08-07T03:21:26.816Z,68.13
2022-08-07T03:24:19.469Z,68.36
2022-08-07T03:26:57.889Z,68.14
2022-08-07T03:29:33.947Z,68.22
2022-08-07T03:32:07.312Z,68.34
2022-08-07T03:34:47.387Z,68.12
2022-08-07T03:37:32.857Z,68.45
2022-08-07T03:40:16.677Z,68.22
2022-08-07T03:42:44.429Z,68.63
2022-08-07T03:45:11.919Z,68.49
2022-08-07T03:47:48.115Z,68.52
2022-08-07T03:50:23.195Z,68.55
2022-08-07T03:52:51.986Z,68.72
2022-08-07T03:55:18.691Z,68.98
2022-08-07T03:58:34.396Z,68.50
2022-08-07T04:00:36.396Z,68.42
2022-08-07T04:03:04.978Z,68.58
2022-08-07T04:05:40.914Z,68.59
2022-08-07T04:08:16.135Z,68.79
2022-08-07T04:10:54.260Z,68.66
2022-08-07T04:14:11.008Z,68.98
2022-08-07T04:16:31.499Z,68.85
2022-08-07T04:19:01.406Z,68.92
2022-08-07T04:21:33.339Z,69.32
2022-08-07T04:24:05.960Z,69.24
2022-08-07T04:26:34.655Z,69.47
2022-08-07T04:29:03.161Z,69.35
2022-08-07T04:31:38.510Z,69.37
2022-08-07T04:34:27.399Z,69.50
2022-08-07T04:37:00.519Z,69.54
2022-08-07T04:39:35.461Z,69.60
2022-08-07T04:42:03.859Z,69.35
2022-08-07T04:44:30.433Z,69.55
2022-08-07T04:47:09.781Z,69.96
2022-08-07T04:49:57.871Z,69.36
2022-08-07T04:52:51.246Z,68.82
2022-08-07T04:58:12.541Z,69.24
2022-08-07T04:58:49.724Z,69.28
2022-08-07T05:01:47.534Z,69.44
2022-08-07T05:04:44.023Z,69.61
2022-08-07T05:07:36.833Z,69.81
2022-08-07T05:10:24.589Z,69.57
2022-08-07T05:13:10.122Z,70.00
2022-08-07T05:15:53.563Z,69.80
2022-08-07T05:18:25.672Z,70.26
2022-08-07T05:20:57.026Z,70.47
2022-08-07T05:23:35.509Z,70.20
2022-08-07T05:26:13.822Z,69.98
2022-08-07T05:28:50.212Z,70.01
2022-08-07T05:31:20.155Z,70.14
2022-08-07T05:34:00.940Z,69.13
2022-08-07T05:36:35.769Z,67.05
2022-08-07T05:40:03.754Z,65.99
2022-08-07T05:42:00.717Z,61.23
2022-08-07T05:44:30.990Z,58.04
2022-08-07T05:47:00.297Z,53.52
2022-08-07T05:49:40.861Z,53.04
2022-08-07T05:52:08.477Z,55.37
2022-08-07T05:54:53.147Z,56.13
2022-08-07T05:57:26.777Z,54.46
2022-08-07T05:59:58.924Z,55.82
2022-08-07T06:02:29.592Z,55.64
2022-08-07T06:05:03.424Z,51.67
2022-08-07T06:08:14.537Z,47.02
2022-08-07T06:10:18.797Z,44.09
2022-08-07T06:12:47.275Z,44.30
2022-08-07T06:15:16.585Z,47.41
2022-08-07T06:17:53.480Z,46.20
2022-08-07T06:20:49.976Z,41.77
2022-08-07T06:23:46.034Z,39.96
2022-08-07T06:25:59.856Z,37.82
2022-08-07T06:28:28.455Z,37.66
2022-08-07T06:30:58.266Z,39.17
2022-08-07T06:33:25.726Z,37.66
2022-08-07T06:36:12.138Z,34.87
2022-08-07T06:38:38.979Z,32.36
2022-08-07T06:42:00.640Z,30.07
2022-08-07T06:44:31.087Z,29.47
2022-08-07T06:47:10.134Z,28.46
2022-08-07T06:49:51.721Z,27.61
2022-08-07T06:52:31.615Z,26.34
2022-08-07T06:55:31.288Z,26.64
2022-08-07T06:58:00.749Z,26.37
2022-08-07T07:00:31.015Z,27.28
2022-08-07T07:03:01.201Z,27.88
2022-08-07T07:06:03.579Z,30.79
2022-08-07T07:08:27.035Z,34.63
2022-08-07T07:10:56.446Z,37.73
2022-08-07T07:13:56.709Z,39.28
2022-08-07T07:16:30.879Z,41.82
2022-08-07T07:19:54.439Z,43.05
2022-08-07T07:22:11.727Z,44.69
2022-08-07T07:24:42.848Z,45.93
2022-08-07T07:27:11.586Z,46.94
2022-08-07T07:29:56.880Z,47.38
2022-08-07T07:32:32.056Z,47.82
2022-08-07T07:35:04.022Z,48.04
2022-08-07T07:37:45.216Z,47.82
2022-08-07T07:40:19.523Z,44.96
2022-08-07T07:42:54.250Z,41.79
2022-08-07T07:46:37.827Z,36.70
2022-08-07T07:48:24.140Z,34.90
2022-08-07T07:51:08.064Z,32.16
2022-08-07T07:53:44.744Z,32.73
2022-08-07T07:56:19.593Z,32.78
2022-08-07T07:59:08.133Z,31.07
2022-08-07T08:02:04.061Z,31.25
2022-08-07T08:04:29.107Z,29.87
2022-08-07T08:07:00.757Z,30.03
2022-08-07T08:09:33.251Z,31.17
2022-08-07T08:12:43.189Z,31.44
2022-08-07T08:15:06.988Z,30.54
2022-08-07T08:17:57.501Z,30.46
2022-08-07T08:20:27.323Z,29.48
2022-08-07T08:23:18.534Z,29.96
2022-08-07T08:26:07.916Z,31.62
2022-08-07T08:28:43.443Z,30.30
2022-08-07T08:31:22.820Z,29.64
2022-08-07T08:33:59.153Z,29.53
2022-08-07T08:36:30.484Z,28.35
2022-08-07T08:39:02.128Z,30.10
2022-08-07T08:41:58.376Z,31.10
2022-08-07T08:44:46.901Z,31.61
2022-08-07T08:47:31.706Z,30.98
2022-08-07T08:50:42.253Z,29.55
2022-08-07T08:53:26.323Z,29.83
2022-08-07T08:56:31.358Z,31.12
2022-08-07T08:59:20.077Z,29.60
2022-08-07T09:02:00.445Z,27.86
2022-08-07T09:04:51.883Z,29.10
2022-08-07T09:07:34.016Z,28.07
2022-08-07T09:10:36.080Z,29.35
2022-08-07T09:13:14.861Z,30.68
2022-08-07T09:16:22.202Z,29.75
2022-08-07T09:18:58.868Z,29.25
2022-08-07T09:21:34.000Z,28.14
2022-08-07T09:24:56.089Z,27.79
2022-08-07T09:28:00.758Z,26.51
2022-08-07T09:31:19.657Z,28.31
2022-08-07T09:34:06.726Z,29.52
2022-08-07T09:37:06.407Z,27.72
2022-08-07T09:40:10.555Z,27.33
2022-08-07T09:42:52.779Z,28.81
2022-08-07T09:47:50.580Z,26.10
2022-08-07T09:49:59.796Z,27.65
2022-08-07T09:52:16.788Z,28.00
2022-08-07T09:54:52.745Z,28.03
2022-08-07T09:57:46.511Z,27.68
2022-08-07T10:00:16.151Z,26.75
2022-08-07T10:04:06.049Z,27.90
2022-08-07T10:06:27.363Z,29.14
2022-08-07T10:09:07.105Z,29.01
2022-08-07T10:12:00.345Z,26.97
2022-08-07T10:15:07.778Z,27.48
2022-08-07T10:18:16.623Z,26.47
2022-08-07T10:21:19.966Z,27.60
2022-08-07T10:24:23.601Z,27.84
2022-08-07T10:27:20.151Z,27.11
2022-08-07T10:29:58.646Z,25.32
2022-08-07T10:32:59.667Z,26.84
2022-08-07T10:35:56.562Z,26.87
2022-08-07T10:38:35.963Z,28.05
2022-08-07T10:41:52.224Z,27.22
2022-08-07T10:44:52.389Z,28.24
2022-08-07T10:48:12.506Z,27.98
2022-08-07T10:50:50.685Z,25.73
2022-08-07T10:53:44.793Z,28.32
2022-08-07T10:56:20.696Z,27.80
2022-08-07T10:59:22.027Z,26.87
2022-08-07T11:02:04.700Z,27.02
2022-08-07T11:04:52.376Z,27.48
2022-08-07T11:07:59.182Z,27.36
2022-08-07T11:10:34.762Z,27.20
2022-08-07T11:14:45.194Z,28.56
2022-08-07T11:16:41.026Z,28.73
2022-08-07T11:19:27.315Z,26.54
2022-08-07T11:22:26.354Z,28.42
2022-08-07T11:25:11.562Z,27.67
2022-08-07T11:28:04.404Z,25.96
2022-08-07T11:30:42.228Z,27.35
2022-08-07T11:33:59.140Z,26.43
2022-08-07T11:36:35.842Z,26.95
2022-08-07T11:39:59.211Z,28.51
2022-08-07T11:42:40.950Z,28.23
2022-08-07T11:45:55.774Z,28.75
2022-08-07T11:49:04.405Z,29.08
2022-08-07T11:51:46.939Z,29.59
2022-08-07T11:54:54.793Z,31.38
2022-08-07T11:58:00.614Z,29.48
2022-08-07T12:01:20.197Z,32.54
2022-08-07T12:04:17.558Z,32.17
2022-08-07T12:06:51.468Z,30.47
2022-08-07T12:09:34.583Z,29.83
2022-08-07T12:12:09.669Z,30.55
2022-08-07T12:14:56.379Z,30.84
2022-08-07T12:17:39.613Z,28.86
2022-08-07T12:20:30.324Z,29.65
2022-08-07T12:23:09.106Z,26.10
2022-08-07T12:26:21.597Z,29.51
2022-08-07T12:29:03.703Z,24.74
2022-08-07T12:32:04.763Z,27.36
2022-08-07T12:34:36.910Z,27.75
2022-08-07T12:37:27.949Z,27.67
2022-08-07T12:39:57.866Z,28.54
2022-08-07T12:42:28.553Z,29.17
2022-08-07T12:45:04.492Z,29.58
2022-08-07T12:47:45.545Z,28.93
2022-08-07T12:50:39.081Z,27.95
2022-08-07T12:54:02.686Z,31.01
2022-08-07T12:56:23.955Z,29.99
2022-08-07T12:58:58.019Z,29.09
2022-08-07T13:01:32.265Z,27.00
2022-08-07T13:04:05.553Z,27.82
2022-08-07T13:07:00.775Z,25.71
2022-08-07T13:10:19.633Z,28.16
2022-08-07T13:12:41.701Z,26.23
2022-08-07T13:15:39.770Z,24.14
2022-08-07T13:18:26.399Z,27.28
2022-08-07T13:21:02.765Z,25.62
2022-08-07T13:24:02.186Z,27.14
2022-08-07T13:26:34.522Z,26.27
2022-08-07T13:29:12.454Z,28.06
2022-08-07T13:31:57.936Z,25.20
2022-08-07T13:34:35.945Z,26.27
2022-08-07T13:37:38.289Z,26.63
2022-08-07T13:40:34.846Z,26.53
2022-08-07T13:43:13.376Z,26.39
2022-08-07T13:46:10.766Z,25.48
2022-08-07T13:48:34.448Z,25.35
2022-08-07T13:51:27.123Z,26.78
2022-08-07T13:54:00.526Z,24.95
2022-08-07T13:56:35.548Z,23.23
2022-08-07T13:59:20.372Z,26.15
2022-08-07T14:02:03.485Z,25.42
2022-08-07T14:04:36.118Z,22.82
2022-08-07T14:07:09.734Z,25.96
2022-08-07T14:10:02.988Z,26.55
2022-08-07T14:12:36.134Z,25.72
2022-08-07T14:15:22.389Z,26.87
2022-08-07T14:18:15.712Z,25.73
2022-08-07T14:20:49.281Z,24.79
2022-08-07T14:23:58.586Z,26.30
2022-08-07T14:26:30.584Z,26.23
2022-08-07T14:32:00.078Z,24.86
2022-08-07T14:34:30.228Z,24.85
2022-08-07T14:37:02.034Z,24.09
2022-08-07T14:40:17.599Z,24.47
2022-08-07T14:42:31.354Z,24.27
2022-08-07T14:45:21.934Z,24.89
2022-08-07T14:47:49.354Z,24.63
2022-08-07T14:50:20.457Z,24.09
2022-08-07T14:52:50.394Z,24.86
2022-08-07T14:55:18.420Z,26.59
2022-08-07T14:57:58.287Z,25.83
2022-08-07T15:00:31.393Z,24.74
2022-08-07T15:03:19.339Z,25.32
2022-08-07T15:08:49.718Z,26.92
2022-08-07T15:11:51.098Z,25.40
2022-08-07T15:14:15.294Z,25.63
2022-08-07T15:16:55.094Z,25.60
2022-08-07T15:20:30.567Z,27.12
2022-08-07T15:22:23.067Z,28.50
2022-08-07T15:33:42.600Z,28.20
2022-08-07T15:36:10.909Z,27.63
2022-08-07T15:38:51.878Z,27.44
2022-08-07T15:42:44.358Z,28.54
2022-08-07T15:44:21.011Z,28.01
2022-08-07T15:46:58.674Z,28.98
2022-08-07T15:50:05.399Z,28.38
2022-08-07T15:52:30.577Z,28.79
2022-08-07T15:55:02.663Z,29.31
2022-08-07T15:57:39.595Z,29.27
2022-08-07T16:00:31.195Z,30.29
2022-08-07T16:03:04.628Z,30.58
2022-08-07T16:05:31.715Z,30.25
2022-08-07T16:08:31.706Z,31.86
2022-08-07T16:10:59.772Z,30.95
2022-08-07T16:13:58.524Z,30.02
2022-08-07T16:16:47.603Z,30.15
2022-08-07T16:19:59.238Z,30.43
2022-08-07T16:22:33.626Z,30.10
2022-08-07T16:25:22.991Z,29.90
2022-08-07T16:30:08.573Z,30.05
2022-08-07T16:31:51.816Z,31.39
2022-08-07T16:34:10.517Z,31.99
2022-08-07T16:38:04.571Z,31.63
2022-08-07T16:40:28.868Z,31.83
2022-08-07T16:43:18.855Z,31.34
2022-08-07T16:47:04.672Z,32.99
2022-08-07T16:50:27.790Z,33.23
2022-08-07T16:52:51.908Z,33.91
2022-08-07T16:55:13.037Z,33.66
2022-08-07T16:58:04.127Z,33.97
2022-08-07T17:00:41.088Z,33.67
2022-08-07T17:03:17.724Z,33.89
2022-08-07T17:06:31.499Z,33.88
2022-08-07T17:09:15.786Z,34.23
2022-08-07T17:12:34.235Z,33.69
2022-08-07T17:15:15.742Z,34.66
2022-08-07T17:17:48.470Z,34.90
2022-08-07T17:20:41.708Z,34.87
2022-08-07T17:23:32.389Z,35.36
2022-08-07T17:26:30.014Z,35.89
2022-08-07T17:28:57.783Z,35.99
2022-08-07T17:32:28.312Z,36.34
2022-08-07T17:35:50.579Z,36.37
2022-08-07T17:38:08.202Z,36.70
2022-08-07T17:40:56.456Z,37.08
2022-08-07T17:44:00.976Z,36.83
2022-08-07T17:46:34.505Z,36.89
2022-08-07T17:49:14.098Z,36.68
2022-08-07T17:52:30.590Z,36.66
2022-08-07T17:55:54.941Z,36.38
2022-08-07T17:58:30.834Z,36.97
2022-08-07T18:01:02.704Z,36.71
2022-08-07T18:04:07.048Z,36.59
2022-08-07T18:07:20.521Z,36.95
2022-08-07T18:10:06.824Z,37.58
2022-08-07T18:13:10.947Z,37.77
2022-08-07T18:16:31.200Z,38.42
2022-08-07T18:21:10.313Z,39.06
2022-08-07T18:22:15.093Z,39.67
2022-08-07T18:24:53.182Z,39.67
2022-08-07T18:27:44.791Z,40.00
2022-08-07T18:30:30.746Z,40.43
2022-08-07T18:33:27.742Z,40.68
2022-08-07T18:36:33.578Z,41.20
2022-08-07T18:40:08.709Z,41.32
2022-08-07T18:42:16.337Z,42.07
2022-08-07T18:45:43.560Z,42.17
2022-08-07T18:50:05.356Z,42.55
2022-08-07T18:52:37.946Z,42.84
2022-08-07T18:54:27.671Z,43.69
2022-08-07T18:57:29.300Z,44.53
2022-08-07T19:00:32.612Z,44.69
2022-08-07T19:03:16.138Z,44.78
2022-08-07T19:06:09.366Z,45.34
2022-08-07T19:08:56.199Z,45.53
2022-08-07T19:12:04.922Z,46.14
2022-08-07T19:14:53.741Z,46.32
2022-08-07T19:17:55.857Z,47.24
2022-08-07T19:20:29.032Z,46.43
2022-08-07T19:23:21.380Z,46.44
2022-08-07T19:26:25.067Z,48.02
2022-08-07T19:30:58.884Z,47.89
2022-08-07T19:32:10.855Z,47.72
2022-08-07T19:34:41.867Z,48.14
2022-08-07T19:37:17.390Z,48.71
2022-08-07T19:40:01.632Z,49.38
2022-08-07T19:42:31.480Z,50.29
2022-08-07T19:45:08.234Z,50.17
2022-08-07T19:47:38.586Z,50.58
2022-08-07T19:50:44.467Z,50.39
2022-08-07T19:52:58.675Z,50.45
2022-08-07T19:55:57.016Z,50.82
2022-08-07T19:58:16.150Z,51.20
2022-08-07T20:00:53.056Z,51.72
2022-08-07T20:03:34.467Z,51.96
2022-08-07T20:06:04.954Z,52.55
2022-08-07T20:08:37.586Z,52.45
2022-08-07T20:11:15.223Z,52.78
2022-08-07T20:14:03.024Z,53.29
2022-08-07T20:16:36.859Z,53.36
2022-08-07T20:19:10.650Z,53.57
2022-08-07T20:21:42.273Z,53.61
2022-08-07T20:24:21.928Z,54.32
2022-08-07T20:26:52.087Z,54.07
2022-08-07T20:29:49.268Z,54.87
2022-08-07T20:32:25.598Z,54.47
2022-08-07T20:34:56.050Z,54.66
2022-08-07T20:37:34.012Z,54.63
2022-08-07T20:40:06.066Z,55.20
2022-08-07T20:42:57.905Z,55.76
2022-08-07T20:45:33.129Z,55.63
2022-08-07T20:48:28.372Z,55.59
2022-08-07T20:51:00.021Z,55.73
2022-08-07T20:54:04.068Z,55.40
2022-08-07T20:56:16.420Z,55.56
2022-08-07T20:58:48.092Z,55.95
2022-08-07T21:01:19.907Z,56.17
2022-08-07T21:04:18.707Z,56.68
2022-08-07T21:06:46.595Z,56.51
2022-08-07T21:09:24.617Z,56.32
2022-08-07T21:11:57.533Z,56.49
2022-08-07T21:14:32.611Z,57.07
2022-08-07T21:18:01.073Z,57.26
2022-08-07T21:20:04.510Z,57.04
2022-08-07T21:22:51.132Z,57.70
2022-08-07T21:25:19.604Z,57.40
2022-08-07T21:28:10.638Z,57.70
2022-08-07T21:30:46.870Z,57.59
2022-08-07T21:33:41.793Z,57.75
2022-08-07T21:36:31.391Z,58.23
2022-08-07T21:39:45.292Z,58.81
2022-08-07T21:42:42.495Z,58.94
2022-08-07T21:46:07.528Z,58.74
2022-08-07T21:48:28.452Z,58.95
2022-08-07T21:51:20.057Z,58.92
2022-08-07T21:53:54.006Z,58.87
2022-08-07T21:56:49.334Z,59.11
2022-08-07T22:00:02.709Z,59.08
2022-08-07T22:02:27.167Z,59.47
2022-08-07T22:04:55.428Z,59.20
2022-08-07T22:07:31.729Z,59.03
2022-08-07T22:10:20.062Z,59.47
2022-08-07T22:12:57.111Z,59.62
2022-08-07T22:16:38.800Z,59.88
2022-08-07T22:18:32.880Z,60.21
2022-08-07T22:21:11.618Z,60.02
2022-08-07T22:23:47.185Z,60.02
2022-08-07T22:26:21.772Z,60.20
2022-08-07T22:29:08.742Z,60.45
2022-08-07T22:32:05.523Z,60.93
2022-08-07T22:34:49.761Z,60.58
2022-08-07T22:38:03.091Z,60.84
2022-08-07T22:40:59.963Z,60.60
2022-08-07T22:43:33.999Z,61.33
2022-08-07T22:46:42.871Z,61.34
2022-08-07T22:49:39.632Z,61.50
2022-08-07T22:52:39.985Z,61.55
2022-08-07T22:55:41.520Z,61.48
2022-08-07T22:58:19.869Z,61.44
2022-08-07T23:01:09.270Z,61.46
2022-08-07T23:04:12.110Z,61.98
2022-08-07T23:07:39.714Z,61.98
2022-08-07T23:10:42.095Z,61.60
2022-08-07T23:13:29.104Z,61.60
2022-08-07T23:16:46.723Z,61.92
2022-08-07T23:20:09.559Z,62.26
2022-08-07T23:22:55.577Z,62.13
2022-08-07T23:25:52.801Z,62.55
2022-08-07T23:28:28.581Z,62.73
2022-08-07T23:31:13.844Z,63.13
2022-08-07T23:34:35.915Z,63.35
2022-08-07T23:37:22.591Z,63.18
2022-08-07T23:40:12.920Z,63.63
2022-08-07T23:42:54.721Z,63.94
2022-08-07T23:45:33.157Z,63.99
2022-08-07T23:48:28.684Z,64.17
2022-08-07T23:53:01.140Z,63.80
2022-08-07T23:54:44.040Z,63.98
2022-08-07T23:57:30.948Z,64.26
